Time;durP1;ratioP1;P1;durP2;ratioP2;P2;SDS_P1;SDS_P2;PMS_P1;PMS_P2;Temp;Humidity;BMP_temperature;BMP_pressure;BME280_temperature;BME280_humidity;BME280_pressure;Samples;Min_cycle;Max_cycle;Signal;HPM_P1;HPM_P2
2022/07/27 00:01:19;;;;;;;4.83;2.77;;;17.20;99.90;;;;;;493281;241;28760;-68
2022/07/27 00:03:22;;;;;;;2.70;2.50;;;17.30;99.90;;;;;;493242;241;28893;-69
2022/07/27 00:05:22;;;;;;;4.23;2.90;;;17.30;99.90;;;;;;493216;241;28664;-67
2022/07/27 00:07:23;;;;;;;2.90;2.70;;;17.10;99.90;;;;;;493215;241;29225;-68
2022/07/27 00:09:24;;;;;;;3.17;2.90;;;17.00;99.90;;;;;;493227;241;29278;-70
2022/07/27 00:11:26;;;;;;;2.90;2.73;;;17.10;99.90;;;;;;493249;241;29122;-68
2022/07/27 00:13:27;;;;;;;3.23;3.03;;;17.10;99.90;;;;;;493259;241;29211;-69
2022/07/27 00:15:28;;;;;;;3.47;3.27;;;17.00;99.90;;;;;;493267;241;28744;-68
2022/07/27 00:17:29;;;;;;;3.67;3.47;;;17.00;99.90;;;;;;493072;241;28679;-67
2022/07/27 00:19:31;;;;;;;3.30;3.10;;;17.00;99.90;;;;;;493302;241;28740;-73
2022/07/27 00:21:32;;;;;;;3.60;3.30;;;16.90;99.90;;;;;;493275;241;28750;-68
2022/07/27 00:23:33;;;;;;;5.20;3.20;;;17.00;99.90;;;;;;493251;241;28819;-69
2022/07/27 00:25:34;;;;;;;3.93;3.27;;;17.10;99.90;;;;;;493228;241;28680;-68
2022/07/27 00:27:36;;;;;;;2.97;2.77;;;17.10;99.90;;;;;;493151;241;28687;-68
2022/07/27 00:29:37;;;;;;;4.60;2.93;;;17.20;99.90;;;;;;493232;241;28708;-69
2022/07/27 00:31:38;;;;;;;3.20;3.00;;;17.20;99.90;;;;;;493228;241;29098;-68
2022/07/27 00:33:39;;;;;;;3.00;2.80;;;17.20;99.90;;;;;;493210;241;29210;-68
2022/07/27 00:35:41;;;;;;;3.17;2.60;;;17.20;99.90;;;;;;493067;241;29140;-68
2022/07/27 00:37:42;;;;;;;3.07;2.87;;;17.20;99.90;;;;;;493210;241;29502;-68
2022/07/27 00:39:44;;;;;;;2.60;2.40;;;17.20;99.90;;;;;;493260;241;28725;-70
2022/07/27 00:41:44;;;;;;;4.00;3.70;;;17.10;99.90;;;;;;493256;241;28668;-68
2022/07/27 00:43:46;;;;;;;3.00;2.80;;;17.10;99.90;;;;;;493238;241;28752;-68
2022/07/27 00:45:47;;;;;;;2.73;2.63;;;17.10;99.90;;;;;;493265;241;28723;-68
2022/07/27 00:47:48;;;;;;;3.10;2.90;;;17.20;99.90;;;;;;493125;241;28721;-68
2022/07/27 00:49:49;;;;;;;2.90;2.70;;;17.10;99.90;;;;;;493278;241;28735;-71
2022/07/27 00:51:51;;;;;;;2.70;2.50;;;17.10;99.90;;;;;;493262;241;28695;-67
2022/07/27 00:53:52;;;;;;;2.50;2.40;;;17.20;99.90;;;;;;493248;241;28720;-69
2022/07/27 00:55:53;;;;;;;2.77;2.67;;;17.20;99.90;;;;;;493211;241;28795;-68
2022/07/27 00:57:54;;;;;;;2.50;2.33;;;17.10;99.90;;;;;;493237;241;29132;-68
2022/07/27 00:59:56;;;;;;;2.77;2.60;;;17.00;99.90;;;;;;493267;241;29287;-69
2022/07/27 01:01:57;;;;;;;2.67;2.57;;;16.90;99.90;;;;;;493264;241;29209;-68
2022/07/27 01:03:58;;;;;;;2.97;2.77;;;17.00;99.90;;;;;;493224;241;28713;-69
2022/07/27 01:05:59;;;;;;;3.00;2.47;;;17.00;99.90;;;;;;493238;241;28684;-68
2022/07/27 01:08:01;;;;;;;3.33;3.13;;;17.10;99.90;;;;;;493193;241;28677;-68
2022/07/27 01:10:02;;;;;;;2.97;2.77;;;17.00;99.90;;;;;;493172;241;28740;-70
2022/07/27 01:12:03;;;;;;;3.03;2.83;;;17.00;99.90;;;;;;493247;241;28707;-68
2022/07/27 01:14:05;;;;;;;3.30;3.00;;;17.10;99.90;;;;;;493261;241;28814;-69
2022/07/27 01:16:06;;;;;;;2.80;2.60;;;17.20;99.90;;;;;;493179;241;28756;-76
2022/07/27 01:18:07;;;;;;;3.23;3.03;;;17.10;99.90;;;;;;493253;241;28716;-68
2022/07/27 01:20:08;;;;;;;3.20;3.00;;;17.00;99.90;;;;;;493267;241;28721;-70
2022/07/27 01:22:09;;;;;;;3.20;3.00;;;17.00;99.90;;;;;;493246;241;29180;-68
2022/07/27 01:24:11;;;;;;;2.80;2.60;;;17.00;99.90;;;;;;493201;241;29203;-69
2022/07/27 01:26:12;;;;;;;5.50;2.77;;;17.10;99.90;;;;;;493191;241;29251;-68
2022/07/27 01:28:13;;;;;;;2.87;2.77;;;17.20;99.90;;;;;;493265;241;29179;-68
2022/07/27 01:30:28;;;;;;;2.90;2.70;;;17.10;99.90;;;;;;493263;241;28779;-71
2022/07/27 01:32:28;;;;;;;3.20;2.90;;;17.00;99.90;;;;;;493172;241;28672;-68
2022/07/27 01:34:32;;;;;;;2.90;2.70;;;17.00;99.90;;;;;;493258;241;29259;-69
2022/07/27 01:36:30;;;;;;;2.93;2.73;;;17.00;99.90;;;;;;492874;241;29231;-68
2022/07/27 01:38:31;;;;;;;3.37;3.17;;;16.90;99.90;;;;;;493257;241;29142;-68
2022/07/27 01:40:35;;;;;;;3.50;3.20;;;16.90;99.90;;;;;;493274;241;28740;-71
2022/07/27 01:42:34;;;;;;;3.47;3.20;;;17.00;99.90;;;;;;493017;241;28728;-69
2022/07/27 01:44:35;;;;;;;3.50;3.20;;;16.90;99.90;;;;;;493067;241;28735;-68
2022/07/27 01:46:36;;;;;;;3.23;2.93;;;16.90;99.90;;;;;;492959;241;28744;-68
2022/07/27 01:48:38;;;;;;;2.97;2.70;;;16.90;99.90;;;;;;493165;241;28740;-68
2022/07/27 01:50:40;;;;;;;3.77;3.00;;;16.90;99.90;;;;;;493266;241;28791;-71
2022/07/27 01:52:41;;;;;;;4.20;3.73;;;16.80;99.90;;;;;;493249;241;28832;-69
2022/07/27 01:54:42;;;;;;;3.50;3.20;;;16.90;99.90;;;;;;493210;241;29088;-67
2022/07/27 01:56:44;;;;;;;3.73;3.10;;;16.80;99.90;;;;;;493160;241;29253;-67
2022/07/27 01:58:45;;;;;;;3.27;3.07;;;16.80;99.90;;;;;;493286;241;29251;-72
2022/07/27 02:00:46;;;;;;;3.27;3.00;;;16.80;99.90;;;;;;493306;241;29130;-68
2022/07/27 02:02:47;;;;;;;3.00;2.80;;;16.90;99.90;;;;;;493244;241;28744;-70
2022/07/27 02:04:49;;;;;;;3.17;2.97;;;17.00;99.90;;;;;;493237;241;28748;-68
2022/07/27 02:06:50;;;;;;;2.97;2.60;;;17.00;99.90;;;;;;493171;241;28767;-69
2022/07/27 02:08:51;;;;;;;2.80;2.50;;;16.90;99.90;;;;;;493267;241;28842;-67
2022/07/27 02:13:12;;;;;;;3.13;2.93;;;16.80;99.90;;;;;;493260;241;28720;-70
2022/07/27 02:15:13;;;;;;;3.30;3.00;;;16.80;99.90;;;;;;493225;241;28799;-68
2022/07/27 02:17:14;;;;;;;3.17;2.97;;;16.80;99.90;;;;;;493161;241;28795;-68
2022/07/27 02:19:16;;;;;;;3.23;3.03;;;16.80;99.90;;;;;;493264;241;28791;-72
2022/07/27 02:21:17;;;;;;;3.13;2.80;;;16.70;99.90;;;;;;493263;241;29137;-68
2022/07/27 02:23:18;;;;;;;2.80;2.60;;;16.80;99.90;;;;;;493219;241;29271;-69
2022/07/27 02:25:19;;;;;;;3.40;3.10;;;16.90;99.90;;;;;;493229;241;29135;-67
2022/07/27 02:27:21;;;;;;;3.17;2.90;;;16.80;99.90;;;;;;493174;241;28722;-69
2022/07/27 02:29:22;;;;;;;2.97;2.77;;;16.80;99.90;;;;;;493276;241;28736;-70
2022/07/27 02:31:24;;;;;;;2.97;2.80;;;16.80;99.90;;;;;;493253;241;28800;-68
2022/07/27 02:33:24;;;;;;;4.07;3.00;;;16.80;99.90;;;;;;493268;241;28719;-69
2022/07/27 02:35:26;;;;;;;2.80;2.70;;;16.70;99.90;;;;;;493196;241;28681;-67
2022/07/27 02:37:27;;;;;;;2.83;2.60;;;16.70;99.90;;;;;;493172;241;28732;-69
2022/07/27 02:39:28;;;;;;;3.00;2.80;;;16.80;99.90;;;;;;493255;241;28724;-71
2022/07/27 02:41:29;;;;;;;3.13;2.87;;;16.70;99.90;;;;;;493263;241;28684;-68
2022/07/27 02:43:31;;;;;;;2.80;2.70;;;16.80;99.90;;;;;;493252;241;29166;-69
2022/07/27 02:45:32;;;;;;;3.30;2.60;;;16.80;99.90;;;;;;493236;241;29148;-68
2022/07/27 02:47:33;;;;;;;2.90;2.67;;;16.90;99.90;;;;;;493172;241;29297;-69
2022/07/27 02:49:34;;;;;;;2.80;2.70;;;16.80;99.90;;;;;;493268;241;29321;-71
2022/07/27 02:51:36;;;;;;;2.97;2.77;;;16.80;99.90;;;;;;493275;241;28681;-68
2022/07/27 02:53:37;;;;;;;2.83;2.30;;;16.70;99.90;;;;;;493265;241;28779;-69
2022/07/27 02:55:38;;;;;;;2.70;2.60;;;16.70;99.90;;;;;;493265;241;28777;-68
2022/07/27 02:57:39;;;;;;;3.10;2.80;;;16.80;99.90;;;;;;493204;241;28719;-68
2022/07/27 02:59:42;;;;;;;2.63;2.43;;;16.80;99.90;;;;;;493249;241;28719;-67
2022/07/27 03:01:42;;;;;;;2.50;2.40;;;16.70;99.90;;;;;;493241;241;28793;-67
2022/07/27 03:03:43;;;;;;;3.10;2.90;;;16.80;99.90;;;;;;493287;241;28802;-70
2022/07/27 03:05:44;;;;;;;2.60;2.07;;;16.80;99.90;;;;;;493260;241;28680;-69
2022/07/27 03:07:46;;;;;;;2.33;2.23;;;16.80;99.90;;;;;;493149;241;29265;-68
2022/07/27 03:09:47;;;;;;;2.83;2.63;;;16.90;99.90;;;;;;493292;241;29480;-71
2022/07/27 03:11:48;;;;;;;2.60;2.50;;;16.80;99.90;;;;;;493292;241;28680;-68
2022/07/27 03:13:49;;;;;;;2.50;2.40;;;16.80;99.90;;;;;;493287;241;28708;-69
2022/07/27 03:15:51;;;;;;;2.37;2.27;;;16.80;99.90;;;;;;493263;241;28685;-68
2022/07/27 03:17:52;;;;;;;3.43;2.40;;;16.80;99.90;;;;;;493194;241;28750;-69
2022/07/27 03:19:53;;;;;;;2.50;2.40;;;16.70;99.90;;;;;;493306;241;28754;-71
2022/07/27 03:21:54;;;;;;;2.53;2.43;;;16.60;99.90;;;;;;493298;241;28680;-68
2022/07/27 03:23:56;;;;;;;2.80;2.60;;;16.60;99.90;;;;;;493291;241;28708;-69
2022/07/27 03:25:57;;;;;;;2.50;2.40;;;16.70;99.90;;;;;;493258;241;29136;-68
2022/07/27 03:27:58;;;;;;;2.70;2.50;;;16.70;99.90;;;;;;493188;241;29195;-69
2022/07/27 03:29:59;;;;;;;2.60;2.40;;;16.70;99.90;;;;;;493296;241;29360;-73
2022/07/27 03:32:01;;;;;;;2.37;2.27;;;16.60;99.90;;;;;;493287;241;29139;-68
2022/07/27 03:34:02;;;;;;;2.50;2.40;;;16.60;99.90;;;;;;493284;241;28787;-71
2022/07/27 03:36:03;;;;;;;2.13;2.03;;;16.70;99.90;;;;;;493084;241;28784;-69
2022/07/27 03:38:04;;;;;;;2.47;2.37;;;16.60;99.90;;;;;;493239;241;28758;-68
2022/07/27 03:40:06;;;;;;;2.37;2.27;;;16.60;99.90;;;;;;493254;241;28682;-68
2022/07/27 03:42:07;;;;;;;2.27;2.17;;;16.60;99.90;;;;;;493290;241;28683;-68
2022/07/27 03:44:08;;;;;;;2.77;2.57;;;16.50;99.90;;;;;;493264;241;28797;-70
2022/07/27 03:46:11;;;;;;;2.60;2.50;;;16.60;99.90;;;;;;493204;241;28696;-68
2022/07/27 03:48:11;;;;;;;2.27;2.17;;;16.60;99.90;;;;;;493165;241;28739;-69
2022/07/27 03:50:12;;;;;;;2.60;2.40;;;16.60;99.90;;;;;;493193;241;29830;-69
2022/07/27 03:52:13;;;;;;;2.20;2.10;;;16.50;99.90;;;;;;493266;241;29215;-68
2022/07/27 03:54:16;;;;;;;3.60;2.63;;;16.60;99.90;;;;;;493267;241;29284;-69
2022/07/27 03:56:16;;;;;;;2.73;2.53;;;16.50;99.90;;;;;;493100;241;29206;-67
2022/07/27 03:58:17;;;;;;;3.00;2.47;;;16.50;99.90;;;;;;493234;241;28762;-68
2022/07/27 04:00:18;;;;;;;3.00;2.70;;;16.30;99.90;;;;;;493261;241;28672;-68
2022/07/27 04:02:20;;;;;;;2.63;2.50;;;16.30;99.90;;;;;;493264;241;28731;-68
2022/07/27 04:04:21;;;;;;;2.80;2.53;;;16.40;99.90;;;;;;493290;241;28712;-70
2022/07/27 04:06:22;;;;;;;3.30;3.10;;;16.40;99.90;;;;;;493201;241;28684;-70
2022/07/27 04:08:23;;;;;;;2.63;2.50;;;16.40;99.90;;;;;;493259;241;28840;-67
2022/07/27 04:10:25;;;;;;;2.73;2.53;;;16.40;99.90;;;;;;493252;241;28672;-68
2022/07/27 04:12:26;;;;;;;2.93;2.73;;;16.30;99.90;;;;;;493287;241;28731;-69
2022/07/27 04:14:27;;;;;;;2.53;2.43;;;16.30;99.90;;;;;;493275;241;29163;-70
2022/07/27 04:16:28;;;;;;;5.40;2.77;;;16.20;99.90;;;;;;493195;241;29272;-68
2022/07/27 04:18:30;;;;;;;2.97;2.87;;;16.20;99.90;;;;;;493257;241;29195;-70
2022/07/27 04:20:31;;;;;;;3.57;2.67;;;16.30;99.90;;;;;;493228;241;29226;-69
2022/07/27 04:22:32;;;;;;;3.73;2.70;;;16.40;99.90;;;;;;493258;241;28670;-69
2022/07/27 04:24:33;;;;;;;2.40;2.30;;;16.30;99.90;;;;;;493281;241;28751;-70
2022/07/27 04:26:35;;;;;;;2.77;2.57;;;16.30;99.90;;;;;;493224;241;28796;-67
2022/07/27 04:28:36;;;;;;;2.87;2.67;;;16.40;99.90;;;;;;493267;241;28816;-68
2022/07/27 04:30:37;;;;;;;2.80;2.60;;;16.50;99.90;;;;;;493234;241;28794;-68
2022/07/27 04:32:38;;;;;;;2.97;2.77;;;16.50;99.90;;;;;;493312;241;28755;-69
2022/07/27 04:34:40;;;;;;;2.83;2.53;;;16.50;99.90;;;;;;493198;241;28712;-70
2022/07/27 04:36:41;;;;;;;2.60;2.50;;;16.30;99.90;;;;;;493201;241;28688;-68
2022/07/27 04:38:42;;;;;;;3.20;3.00;;;16.20;99.90;;;;;;493263;241;29222;-68
2022/07/27 04:40:43;;;;;;;3.17;2.97;;;16.10;99.90;;;;;;493258;241;29884;-68
2022/07/27 04:42:45;;;;;;;2.93;2.70;;;16.10;99.90;;;;;;493283;241;29138;-68
2022/07/27 04:44:46;;;;;;;3.40;3.10;;;16.10;99.90;;;;;;493280;241;29186;-69
2022/07/27 04:46:47;;;;;;;7.83;3.00;;;16.00;99.90;;;;;;493187;241;28771;-68
2022/07/27 04:48:48;;;;;;;4.40;3.47;;;16.00;99.90;;;;;;493226;241;28731;-69
2022/07/27 04:50:50;;;;;;;3.00;2.77;;;16.00;99.90;;;;;;493235;241;28760;-68
2022/07/27 04:52:51;;;;;;;3.00;2.70;;;16.00;99.90;;;;;;493271;241;28661;-69
2022/07/27 04:54:52;;;;;;;2.97;2.77;;;16.10;99.90;;;;;;493255;241;28718;-70
2022/07/27 04:56:53;;;;;;;3.00;2.80;;;16.10;99.90;;;;;;493201;241;28735;-68
2022/07/27 04:58:55;;;;;;;4.60;2.77;;;16.20;99.90;;;;;;493278;241;28787;-69
2022/07/27 05:00:56;;;;;;;2.93;2.70;;;16.20;99.90;;;;;;493244;241;28674;-68
2022/07/27 05:02:57;;;;;;;3.63;2.73;;;16.10;99.90;;;;;;493253;241;29232;-68
2022/07/27 05:04:58;;;;;;;2.77;2.53;;;16.20;99.90;;;;;;493240;241;29296;-71
2022/07/27 05:07:00;;;;;;;2.60;2.50;;;16.20;99.90;;;;;;493191;241;29163;-67
2022/07/27 05:09:01;;;;;;;3.00;2.80;;;16.20;99.90;;;;;;493249;241;29311;-69
2022/07/27 05:11:02;;;;;;;3.80;2.77;;;16.10;99.90;;;;;;493217;241;28748;-67
2022/07/27 05:13:03;;;;;;;3.03;2.80;;;16.10;99.90;;;;;;493276;241;28788;-68
2022/07/27 05:15:05;;;;;;;2.50;2.40;;;16.20;99.90;;;;;;493281;241;28771;-72
2022/07/27 05:17:06;;;;;;;3.00;2.83;;;16.30;99.90;;;;;;493204;241;28776;-68
2022/07/27 05:19:07;;;;;;;2.53;2.43;;;16.30;99.90;;;;;;493239;241;28763;-69
2022/07/27 05:21:08;;;;;;;4.90;2.87;;;16.20;99.90;;;;;;493128;241;28712;-68
2022/07/27 05:23:10;;;;;;;3.00;2.70;;;16.20;99.90;;;;;;493280;241;28744;-69
2022/07/27 05:25:11;;;;;;;3.10;2.80;;;16.10;99.90;;;;;;493265;241;28794;-69
2022/07/27 05:27:12;;;;;;;2.40;2.30;;;16.20;99.90;;;;;;493177;241;29186;-68
2022/07/27 05:29:13;;;;;;;2.87;2.67;;;16.20;99.90;;;;;;493263;241;29291;-70
2022/07/27 05:31:15;;;;;;;2.40;2.20;;;16.20;99.90;;;;;;493266;241;29280;-71
2022/07/27 05:33:16;;;;;;;2.53;2.40;;;16.20;99.90;;;;;;493268;241;28667;-68
2022/07/27 05:35:17;;;;;;;2.70;2.50;;;16.30;99.90;;;;;;493176;241;28715;-69
2022/07/27 05:37:18;;;;;;;2.93;2.40;;;16.20;99.90;;;;;;493188;241;28752;-69
2022/07/27 05:39:20;;;;;;;2.60;2.50;;;16.20;99.90;;;;;;493241;241;28791;-68
2022/07/27 05:41:21;;;;;;;4.00;2.40;;;16.10;99.90;;;;;;493257;241;28707;-69
2022/07/27 05:43:22;;;;;;;2.30;2.20;;;16.20;99.90;;;;;;493270;241;28685;-68
2022/07/27 05:45:24;;;;;;;2.43;2.23;;;16.30;99.90;;;;;;493255;241;28803;-69
2022/07/27 05:47:25;;;;;;;2.47;2.27;;;16.30;99.90;;;;;;493147;241;29116;-69
2022/07/27 05:49:26;;;;;;;2.47;2.27;;;16.30;99.90;;;;;;493184;241;29181;-68
2022/07/27 05:51:29;;;;;;;2.67;2.47;;;16.30;99.90;;;;;;493248;241;29248;-68
2022/07/27 05:53:28;;;;;;;2.40;2.30;;;16.10;99.90;;;;;;493105;241;28668;-68
2022/07/27 05:55:30;;;;;;;2.90;2.60;;;16.20;99.90;;;;;;493284;241;28718;-70
2022/07/27 05:57:31;;;;;;;3.20;2.87;;;15.90;99.90;;;;;;493227;241;28672;-67
2022/07/27 05:59:32;;;;;;;2.50;2.30;;;16.00;99.90;;;;;;493274;241;28708;-70
2022/07/27 06:01:33;;;;;;;3.70;2.30;;;15.90;99.90;;;;;;493288;241;28771;-68
2022/07/27 06:03:35;;;;;;;3.83;2.60;;;15.90;99.90;;;;;;493271;241;28749;-68
2022/07/27 06:05:36;;;;;;;2.40;2.30;;;15.90;99.90;;;;;;493244;241;28723;-70
2022/07/27 06:09:57;;;;;;;4.13;2.80;;;15.80;99.90;;;;;;493260;241;29146;-69
2022/07/27 06:11:58;;;;;;;2.40;2.23;;;15.80;99.90;;;;;;493280;241;29191;-69
2022/07/27 06:13:59;;;;;;;2.53;2.33;;;15.80;99.90;;;;;;493232;241;29242;-68
2022/07/27 06:16:01;;;;;;;4.40;2.50;;;15.90;99.90;;;;;;493244;241;28725;-69
2022/07/27 06:18:02;;;;;;;2.70;2.50;;;16.00;99.90;;;;;;493185;241;28669;-68
2022/07/27 06:20:03;;;;;;;2.67;2.47;;;16.00;99.90;;;;;;493280;241;28743;-69
2022/07/27 06:22:05;;;;;;;2.50;2.30;;;16.00;99.90;;;;;;493249;241;28811;-70
2022/07/27 06:24:06;;;;;;;2.47;2.27;;;16.10;99.90;;;;;;493234;241;28734;-68
2022/07/27 06:26:08;;;;;;;2.20;2.10;;;16.10;99.90;;;;;;493195;241;28715;-73
2022/07/27 06:28:08;;;;;;;2.30;2.20;;;16.40;99.90;;;;;;493214;241;28671;-68
2022/07/27 06:30:09;;;;;;;5.20;2.40;;;16.50;99.90;;;;;;493239;241;28688;-68
2022/07/27 06:32:11;;;;;;;2.30;2.13;;;16.30;99.90;;;;;;493257;241;28731;-71
2022/07/27 06:34:12;;;;;;;2.27;2.17;;;16.40;99.90;;;;;;493265;241;29136;-68
2022/07/27 06:36:13;;;;;;;2.70;2.50;;;16.40;99.90;;;;;;493093;241;29182;-69
2022/07/27 06:38:14;;;;;;;2.80;2.40;;;16.60;99.90;;;;;;493226;241;29189;-68
2022/07/27 06:40:16;;;;;;;2.50;2.30;;;16.40;99.90;;;;;;493271;241;28670;-69
2022/07/27 06:42:17;;;;;;;2.20;2.10;;;16.40;99.90;;;;;;493257;241;28814;-70
2022/07/27 06:44:18;;;;;;;2.33;2.23;;;16.50;99.90;;;;;;493269;241;28670;-68
2022/07/27 06:46:19;;;;;;;2.50;2.30;;;16.60;99.90;;;;;;493181;241;28726;-69
2022/07/27 06:48:21;;;;;;;2.43;2.23;;;16.80;99.90;;;;;;493239;241;28746;-68
2022/07/27 06:50:22;;;;;;;2.50;2.30;;;16.60;99.90;;;;;;493260;241;28674;-71
2022/07/27 06:52:23;;;;;;;2.33;2.23;;;16.90;99.90;;;;;;493269;241;28800;-71
2022/07/27 06:54:24;;;;;;;4.97;2.70;;;17.10;99.90;;;;;;493244;241;28794;-68
2022/07/27 06:56:26;;;;;;;3.33;2.50;;;16.70;99.90;;;;;;493167;241;28813;-69
2022/07/27 06:58:27;;;;;;;2.40;2.20;;;16.70;99.90;;;;;;493240;241;29210;-68
2022/07/27 07:00:28;;;;;;;3.03;2.43;;;16.80;99.90;;;;;;493262;241;29217;-68
2022/07/27 07:02:29;;;;;;;2.57;1.97;;;16.80;99.90;;;;;;493224;241;29191;-69
2022/07/27 07:04:32;;;;;;;2.57;2.40;;;16.90;99.90;;;;;;493167;241;29317;-68
2022/07/27 07:06:32;;;;;;;4.53;2.23;;;17.10;99.90;;;;;;493102;241;28752;-68
2022/07/27 07:08:33;;;;;;;3.00;2.60;;;17.20;99.90;;;;;;493241;241;28693;-68
2022/07/27 07:10:34;;;;;;;5.00;2.43;;;17.20;99.90;;;;;;493261;241;28706;-69
2022/07/27 07:12:36;;;;;;;1.90;1.80;;;16.90;99.90;;;;;;493255;241;28709;-70
2022/07/27 07:14:37;;;;;;;2.07;1.97;;;17.00;99.90;;;;;;493258;241;28829;-69
2022/07/27 07:16:38;;;;;;;1.83;1.73;;;17.20;99.90;;;;;;493171;241;29434;-69
2022/07/27 07:18:39;;;;;;;2.20;2.00;;;17.10;99.90;;;;;;493289;241;28771;-69
2022/07/27 07:20:41;;;;;;;1.90;1.80;;;17.20;99.90;;;;;;493275;241;28715;-69
2022/07/27 07:22:42;;;;;;;3.13;2.00;;;17.40;99.90;;;;;;493285;241;29271;-70
2022/07/27 07:24:43;;;;;;;2.30;2.10;;;17.60;99.90;;;;;;493279;241;29200;-68
2022/07/27 07:26:44;;;;;;;3.13;2.10;;;17.60;99.90;;;;;;493229;241;29294;-70
2022/07/27 07:28:46;;;;;;;2.10;2.00;;;17.60;99.90;;;;;;493295;241;29446;-71
2022/07/27 07:30:47;;;;;;;2.17;2.00;;;17.70;99.90;;;;;;493298;241;28715;-69
2022/07/27 07:32:48;;;;;;;2.93;2.17;;;17.80;99.90;;;;;;493315;241;28790;-71
2022/07/27 07:34:49;;;;;;;4.00;2.63;;;17.40;99.90;;;;;;493158;241;28763;-69
2022/07/27 07:36:51;;;;;;;2.20;2.00;;;17.30;99.90;;;;;;493222;241;28725;-68
2022/07/27 07:38:54;;;;;;;2.20;2.10;;;17.40;99.90;;;;;;493271;241;28691;-69
2022/07/27 07:40:53;;;;;;;3.30;1.90;;;17.50;99.90;;;;;;493169;241;28754;-69
2022/07/27 07:42:55;;;;;;;2.30;2.20;;;17.80;99.90;;;;;;493236;241;28843;-71
2022/07/27 07:44:56;;;;;;;2.33;2.20;;;17.90;99.90;;;;;;493285;241;28667;-70
2022/07/27 07:46:57;;;;;;;2.10;1.97;;;18.00;99.90;;;;;;493192;241;28722;-69
2022/07/27 07:48:58;;;;;;;1.83;1.73;;;18.10;99.90;;;;;;493290;241;29359;-72
2022/07/27 07:50:59;;;;;;;2.23;2.00;;;18.40;99.90;;;;;;493301;241;29151;-69
2022/07/27 07:53:01;;;;;;;2.47;2.30;;;18.20;99.90;;;;;;493290;241;29305;-71
2022/07/27 07:55:02;;;;;;;1.87;1.77;;;18.20;99.90;;;;;;493280;241;28691;-69
2022/07/27 07:57:03;;;;;;;2.53;1.73;;;18.30;99.90;;;;;;493243;241;28706;-69
2022/07/27 07:59:04;;;;;;;4.37;1.90;;;18.20;99.90;;;;;;493283;241;28719;-72
2022/07/27 08:01:06;;;;;;;1.80;1.70;;;18.30;99.90;;;;;;493262;241;28752;-68
2022/07/27 08:03:07;;;;;;;3.37;1.93;;;18.10;99.90;;;;;;493280;241;28765;-70
2022/07/27 08:05:08;;;;;;;3.23;2.43;;;17.80;99.90;;;;;;493280;241;28787;-68
2022/07/27 08:07:09;;;;;;;2.50;2.30;;;17.50;99.90;;;;;;493200;241;28803;-68
2022/07/27 08:09:12;;;;;;;3.23;2.33;;;17.60;99.90;;;;;;493309;241;28795;-72
2022/07/27 08:11:12;;;;;;;2.57;1.90;;;17.50;99.90;;;;;;493179;241;28672;-69
2022/07/27 08:13:13;;;;;;;2.13;2.00;;;17.80;99.90;;;;;;493276;241;29175;-69
2022/07/27 08:15:14;;;;;;;4.50;2.40;;;17.90;99.90;;;;;;493237;241;29169;-68
2022/07/27 08:17:16;;;;;;;3.83;2.10;;;17.80;99.90;;;;;;493218;241;29237;-70
2022/07/27 08:19:17;;;;;;;3.30;2.70;;;17.60;99.90;;;;;;493285;241;29206;-72
2022/07/27 08:21:18;;;;;;;4.83;2.30;;;17.60;99.90;;;;;;493261;241;28748;-68
2022/07/27 08:23:19;;;;;;;2.37;2.17;;;18.00;99.90;;;;;;493163;241;28736;-69
2022/07/27 08:25:21;;;;;;;2.20;2.10;;;18.20;99.90;;;;;;493062;241;28692;-69
2022/07/27 08:27:22;;;;;;;5.47;2.10;;;18.20;99.90;;;;;;493043;241;28679;-69
2022/07/27 08:29:23;;;;;;;2.47;2.27;;;18.10;99.90;;;;;;493196;241;28709;-71
2022/07/27 08:31:25;;;;;;;2.17;2.00;;;18.10;99.90;;;;;;493289;241;28856;-69
2022/07/27 08:33:26;;;;;;;3.50;2.20;;;18.40;99.90;;;;;;493281;241;28782;-69
2022/07/27 08:35:27;;;;;;;4.03;2.50;;;18.30;99.90;;;;;;493136;241;28681;-68
2022/07/27 08:37:28;;;;;;;3.10;2.80;;;17.80;99.90;;;;;;493201;241;29215;-69
2022/07/27 08:39:30;;;;;;;5.87;2.70;;;17.70;99.90;;;;;;493277;241;29183;-70
2022/07/27 08:41:31;;;;;;;6.97;2.50;;;17.60;99.90;;;;;;493283;241;29305;-69
2022/07/27 08:43:32;;;;;;;3.70;2.50;;;17.80;99.90;;;;;;493266;241;29184;-69
2022/07/27 08:45:33;;;;;;;4.40;2.50;;;17.70;99.90;;;;;;493247;241;28682;-69
2022/07/27 08:47:35;;;;;;;2.30;2.00;;;18.10;99.90;;;;;;493197;241;28732;-69
2022/07/27 08:49:36;;;;;;;4.60;2.10;;;18.10;99.90;;;;;;493282;241;28742;-71
2022/07/27 08:51:37;;;;;;;3.47;2.13;;;18.00;99.90;;;;;;493273;241;28685;-68
2022/07/27 08:53:38;;;;;;;3.63;2.20;;;18.00;99.90;;;;;;493267;241;28771;-69
2022/07/27 08:55:40;;;;;;;4.27;2.37;;;17.80;99.90;;;;;;493273;241;28756;-68
2022/07/27 08:57:41;;;;;;;4.37;2.80;;;17.60;99.90;;;;;;493217;241;28729;-69
2022/07/27 08:59:42;;;;;;;2.83;2.13;;;17.90;99.90;;;;;;493277;241;28788;-70
2022/07/27 09:01:43;;;;;;;2.90;2.30;;;18.00;99.90;;;;;;493297;241;28771;-68
2022/07/27 09:03:45;;;;;;;6.13;2.40;;;18.30;99.90;;;;;;493268;241;29159;-69
2022/07/27 09:05:46;;;;;;;3.30;2.60;;;18.30;99.90;;;;;;493252;241;29141;-69
2022/07/27 09:07:47;;;;;;;2.30;2.10;;;18.40;99.90;;;;;;493149;241;29215;-69
2022/07/27 09:09:48;;;;;;;1.90;1.80;;;18.60;99.90;;;;;;493283;241;28823;-72
2022/07/27 09:11:50;;;;;;;3.13;2.00;;;18.80;99.90;;;;;;493231;241;28669;-69
2022/07/27 09:13:51;;;;;;;4.17;2.60;;;18.40;99.90;;;;;;493256;241;28712;-70
2022/07/27 09:15:52;;;;;;;3.47;2.20;;;18.20;99.90;;;;;;493258;241;28667;-68
2022/07/27 09:17:53;;;;;;;4.60;2.37;;;18.30;99.90;;;;;;493191;241;28842;-69
2022/07/27 09:19:55;;;;;;;3.70;2.40;;;18.60;99.90;;;;;;493283;241;28763;-72
2022/07/27 09:21:56;;;;;;;3.17;2.10;;;18.60;99.90;;;;;;493295;241;28686;-69
2022/07/27 09:23:57;;;;;;;4.60;2.20;;;18.70;99.90;;;;;;493280;241;28705;-70
2022/07/27 09:25:58;;;;;;;2.53;2.33;;;18.60;99.90;;;;;;493252;241;28752;-68
2022/07/27 09:28:00;;;;;;;3.30;2.30;;;18.30;99.90;;;;;;492852;241;30892;-69
2022/07/27 09:30:02;;;;;;;5.93;2.83;;;18.30;99.90;;;;;;493284;241;28906;-73
2022/07/27 09:32:02;;;;;;;3.50;2.50;;;18.30;99.90;;;;;;493208;241;29135;-70
2022/07/27 09:34:04;;;;;;;2.83;2.23;;;18.40;99.90;;;;;;493275;241;28736;-70
2022/07/27 09:36:05;;;;;;;4.63;2.77;;;18.60;99.90;;;;;;493004;241;28727;-69
2022/07/27 09:38:06;;;;;;;3.93;2.80;;;18.60;99.90;;;;;;493143;241;28762;-70
2022/07/27 09:40:07;;;;;;;2.73;2.03;;;18.60;99.90;;;;;;493269;241;28800;-72
2022/07/27 09:42:08;;;;;;;2.53;2.07;;;18.70;99.90;;;;;;493275;241;28676;-68
2022/07/27 09:44:10;;;;;;;5.70;2.97;;;18.90;99.90;;;;;;493259;241;28787;-71
2022/07/27 09:46:11;;;;;;;2.77;2.07;;;19.00;99.90;;;;;;493175;241;28673;-70
2022/07/27 09:48:12;;;;;;;5.83;2.47;;;19.30;99.90;;;;;;493240;241;28727;-70
2022/07/27 09:50:13;;;;;;;5.33;2.37;;;19.10;99.90;;;;;;493270;241;28765;-72
2022/07/27 09:52:15;;;;;;;3.57;2.33;;;19.20;99.90;;;;;;493266;241;29208;-70
2022/07/27 09:54:16;;;;;;;5.23;2.10;;;19.10;99.90;;;;;;493283;241;29331;-70
2022/07/27 09:56:17;;;;;;;2.90;2.13;;;19.40;99.90;;;;;;493145;241;29237;-69
2022/07/27 09:58:18;;;;;;;2.47;1.90;;;19.60;99.90;;;;;;493273;241;29213;-69
2022/07/27 10:00:20;;;;;;;2.30;1.90;;;19.50;99.90;;;;;;493280;241;28702;-73
2022/07/27 10:02:21;;;;;;;3.90;2.50;;;19.70;99.90;;;;;;493298;241;28661;-70
2022/07/27 10:04:22;;;;;;;5.20;2.20;;;19.50;99.90;;;;;;493309;241;28735;-70
2022/07/27 10:06:23;;;;;;;4.07;2.37;;;19.90;99.90;;;;;;493157;241;29053;-70
2022/07/27 10:08:25;;;;;;;3.70;2.07;;;19.60;99.90;;;;;;493258;241;28749;-70
2022/07/27 10:10:27;;;;;;;3.20;2.47;;;19.60;99.90;;;;;;493291;241;28720;-71
2022/07/27 10:12:27;;;;;;;2.20;2.00;;;19.80;99.90;;;;;;493229;241;28770;-69
2022/07/27 10:14:28;;;;;;;2.63;2.00;;;20.20;99.90;;;;;;493301;241;28759;-71
2022/07/27 10:16:30;;;;;;;3.27;2.43;;;20.40;99.90;;;;;;493095;241;29499;-69
2022/07/27 10:18:31;;;;;;;4.53;2.53;;;20.50;99.90;;;;;;493310;241;29131;-70
2022/07/27 10:20:32;;;;;;;3.00;2.20;;;19.90;99.90;;;;;;493300;241;29206;-74
2022/07/27 10:22:33;;;;;;;3.77;2.67;;;19.70;99.90;;;;;;493279;241;28758;-69
2022/07/27 10:24:35;;;;;;;4.03;2.60;;;19.60;99.90;;;;;;493257;241;28717;-70
2022/07/27 10:26:36;;;;;;;3.80;2.20;;;19.80;99.90;;;;;;493060;241;28677;-70
2022/07/27 10:28:37;;;;;;;4.27;2.20;;;20.10;99.90;;;;;;493274;241;28756;-70
2022/07/27 10:30:38;;;;;;;3.70;2.00;;;20.30;99.90;;;;;;493262;241;28708;-72
2022/07/27 10:32:43;;;;;;;2.60;2.40;;;20.50;99.90;;;;;;493261;241;28780;-69
2022/07/27 10:34:41;;;;;;;3.43;2.00;;;20.40;99.90;;;;;;492836;241;28723;-70
2022/07/27 10:36:42;;;;;;;3.10;2.23;;;20.40;99.90;;;;;;493122;241;28689;-70